Terminal Aerodrome Forecast
Issued by NWS Austin/San Antonio, TX

Home | Current Version | Previous Version | Text Only | Print | Product List | Glossary On
Versions: 1 2 3 4 5 6 7 8 9 10 11 12 13 14 15 16 17 18 19 20 21 22 23 24 25 26
000
FTUS44 KEWX 301737
TAFAUS
TAF
KAUS 301737Z 3018/3124 05005KT P6SM BKN028 BKN150
      TEMPO 3019/3023 VRB15G30KT 3SM TSRA BKN035CB
     FM310600 36004KT P6SM OVC015
     FM311500 01006KT P6SM BKN050=

USA.gov is the U.S. government's official web portal to all federal, state and local government web resources and services.